createdAt,value
2023-10-28T00:00:00.130Z, 0
2023-10-28T00:02:00.148Z, 0
2023-10-28T00:04:00.094Z, 0
2023-10-28T00:06:00.158Z, 0
2023-10-28T00:08:00.106Z, 0
2023-10-28T00:10:00.118Z, 0
2023-10-28T00:12:00.107Z, 0
2023-10-28T00:14:00.081Z, 0
2023-10-28T00:16:00.093Z, 0
2023-10-28T00:18:00.148Z, 0
2023-10-28T00:20:00.235Z, 0
2023-10-28T00:22:00.087Z, 0
2023-10-28T00:24:00.100Z, 0
2023-10-28T00:26:00.116Z, 0
2023-10-28T00:28:00.089Z, 0
2023-10-28T00:30:00.190Z, 0
2023-10-28T00:32:00.197Z, 0
2023-10-28T00:34:00.092Z, 0
2023-10-28T00:36:00.195Z, 0
2023-10-28T00:38:00.136Z, 0
2023-10-28T00:40:00.171Z, 0
2023-10-28T00:42:00.101Z, 0
2023-10-28T00:44:00.090Z, 0
2023-10-28T00:46:00.113Z, 0
2023-10-28T00:48:00.143Z, 0
2023-10-28T00:50:00.188Z, 0
2023-10-28T00:52:00.124Z, 0
2023-10-28T00:54:00.110Z, 0
2023-10-28T00:56:00.124Z, 0
2023-10-28T00:58:00.644Z, 0
2023-10-28T01:00:00.128Z, 0
2023-10-28T01:02:00.127Z, 0
2023-10-28T01:04:00.108Z, 0
2023-10-28T01:06:00.128Z, 0
2023-10-28T01:08:00.195Z, 0
2023-10-28T01:10:00.120Z, 0
2023-10-28T01:12:00.100Z, 0
2023-10-28T01:14:00.152Z, 0
2023-10-28T01:16:00.096Z, 0
2023-10-28T01:18:00.191Z, 0
2023-10-28T01:20:00.233Z, 0
2023-10-28T01:22:00.093Z, 0
2023-10-28T01:24:00.116Z, 0
2023-10-28T01:26:00.440Z, 0
2023-10-28T01:28:00.094Z, 0
2023-10-28T01:30:00.160Z, 0
2023-10-28T01:32:00.104Z, 0
2023-10-28T01:34:00.587Z, 0
2023-10-28T01:36:00.163Z, 0
2023-10-28T01:38:00.200Z, 0
2023-10-28T01:40:00.112Z, 0
2023-10-28T01:42:00.101Z, 0
2023-10-28T01:44:00.126Z, 0
2023-10-28T01:46:00.129Z, 0
2023-10-28T01:48:00.144Z, 0
2023-10-28T01:50:00.161Z, 0
2023-10-28T01:52:00.096Z, 0
2023-10-28T01:54:00.109Z, 0
2023-10-28T01:56:00.173Z, 0
2023-10-28T01:58:00.092Z, 0
2023-10-28T02:00:00.110Z, 0
2023-10-28T02:02:00.125Z, 0
2023-10-28T02:04:00.085Z, 0
2023-10-28T02:06:00.106Z, 0
2023-10-28T02:08:00.126Z, 0
2023-10-28T02:10:00.123Z, 0
2023-10-28T02:12:00.111Z, 0
2023-10-28T02:14:00.141Z, 0
2023-10-28T02:16:00.368Z, 0
2023-10-28T02:18:00.250Z, 0
2023-10-28T02:20:00.349Z, 0
2023-10-28T02:22:12.821Z, 0
2023-10-28T02:24:00.137Z, 0
2023-10-28T02:26:00.113Z, 0
2023-10-28T02:28:00.110Z, 0
2023-10-28T02:30:00.112Z, 0
2023-10-28T02:32:00.132Z, 0
2023-10-28T02:34:00.114Z, 0
2023-10-28T02:36:00.099Z, 0
2023-10-28T02:38:00.103Z, 0
2023-10-28T02:40:00.142Z, 0
2023-10-28T02:42:00.103Z, 0
2023-10-28T02:44:00.217Z, 0
2023-10-28T02:46:00.124Z, 0
2023-10-28T02:48:00.133Z, 0
2023-10-28T02:50:00.167Z, 0
2023-10-28T02:52:00.074Z, 0
2023-10-28T02:54:00.403Z, 0
2023-10-28T02:56:00.101Z, 0
2023-10-28T02:58:00.089Z, 0
2023-10-28T03:00:00.128Z, 0
2023-10-28T03:02:00.105Z, 0
2023-10-28T03:04:00.084Z, 0
2023-10-28T03:06:00.104Z, 0
2023-10-28T03:08:00.126Z, 0
2023-10-28T03:10:00.142Z, 0
2023-10-28T03:12:00.109Z, 0
2023-10-28T03:14:00.130Z, 0
2023-10-28T03:16:00.181Z, 0
2023-10-28T03:18:00.128Z, 0
2023-10-28T03:20:00.209Z, 0
2023-10-28T03:22:00.083Z, 0
2023-10-28T03:24:00.378Z, 0
2023-10-28T03:26:00.111Z, 0
2023-10-28T03:28:00.088Z, 0
2023-10-28T03:30:00.134Z, 0
2023-10-28T03:32:00.139Z, 0
2023-10-28T03:34:00.075Z, 0
2023-10-28T03:36:00.112Z, 0
2023-10-28T03:38:00.097Z, 0
2023-10-28T03:40:00.108Z, 0
2023-10-28T03:42:00.114Z, 0
2023-10-28T03:44:00.106Z, 0
2023-10-28T03:46:00.152Z, 0
2023-10-28T03:48:00.179Z, 0
2023-10-28T03:50:00.120Z, 0
2023-10-28T03:52:00.085Z, 0
2023-10-28T03:54:00.111Z, 0
2023-10-28T03:56:00.131Z, 0
2023-10-28T03:58:00.083Z, 0
2023-10-28T04:00:00.127Z, 0
2023-10-28T04:02:00.114Z, 0
2023-10-28T04:04:00.178Z, 0
2023-10-28T04:06:00.100Z, 0
2023-10-28T04:08:00.124Z, 0
2023-10-28T04:10:00.146Z, 0
2023-10-28T04:12:00.095Z, 0
2023-10-28T04:14:00.136Z, 0
2023-10-28T04:16:00.115Z, 0
2023-10-28T04:18:00.142Z, 0
2023-10-28T04:20:00.183Z, 0
2023-10-28T04:22:00.094Z, 0
2023-10-28T04:24:00.146Z, 0
2023-10-28T04:26:00.143Z, 0
2023-10-28T04:28:00.092Z, 0
2023-10-28T04:30:00.241Z, 0
2023-10-28T04:32:00.149Z, 0
2023-10-28T04:34:00.088Z, 0
2023-10-28T04:36:00.145Z, 0
2023-10-28T04:38:00.140Z, 0
2023-10-28T04:40:00.122Z, 0
2023-10-28T04:42:00.105Z, 0
2023-10-28T04:44:00.123Z, 0
2023-10-28T04:46:00.200Z, 0
2023-10-28T04:48:00.151Z, 0
2023-10-28T04:50:00.165Z, 0
2023-10-28T04:52:00.107Z, 0
2023-10-28T04:54:00.106Z, 0
2023-10-28T04:56:00.102Z, 0
2023-10-28T04:58:00.083Z, 0
2023-10-28T05:00:00.158Z, 0
2023-10-28T05:02:00.113Z, 0
2023-10-28T05:04:00.105Z, 0
2023-10-28T05:06:00.104Z, 0
2023-10-28T05:08:00.292Z, 0
2023-10-28T05:10:00.127Z, 0
2023-10-28T05:12:00.135Z, 0
2023-10-28T05:14:00.229Z, 0
2023-10-28T05:16:00.170Z, 0
2023-10-28T05:18:00.161Z, 0
2023-10-28T05:20:00.304Z, 0
2023-10-28T05:22:00.147Z, 0
2023-10-28T05:24:00.115Z, 0
2023-10-28T05:26:00.248Z, 0
2023-10-28T05:28:00.087Z, 0
2023-10-28T05:30:00.135Z, 0
2023-10-28T05:32:00.155Z, 0
2023-10-28T05:34:00.095Z, 0
2023-10-28T05:36:00.132Z, 0
2023-10-28T05:38:00.135Z, 0
2023-10-28T05:40:00.141Z, 0
2023-10-28T05:42:00.115Z, 2
2023-10-28T05:44:00.151Z, 3
2023-10-28T05:46:00.138Z, 5
2023-10-28T05:48:00.104Z, 8
2023-10-28T05:50:00.179Z, 12
2023-10-28T05:52:00.112Z, 19
2023-10-28T05:54:00.107Z, 25
2023-10-28T05:56:00.153Z, 34
2023-10-28T05:58:00.099Z, 46
2023-10-28T06:00:00.137Z, 65
2023-10-28T06:02:00.094Z, 91
2023-10-28T06:04:00.101Z, 128
2023-10-28T06:06:00.110Z, 165
2023-10-28T06:08:00.095Z, 206
2023-10-28T06:10:00.172Z, 270
2023-10-28T06:12:00.124Z, 353
2023-10-28T06:14:00.168Z, 433
2023-10-28T06:16:00.148Z, 529
2023-10-28T06:18:00.152Z, 610
2023-10-28T06:20:00.172Z, 693
2023-10-28T06:22:00.075Z, 791
2023-10-28T06:24:00.097Z, 855
2023-10-28T06:26:00.208Z, 926
2023-10-28T06:28:00.106Z, 1101
2023-10-28T06:30:00.195Z, 1250
2023-10-28T06:32:00.109Z, 1280
2023-10-28T06:34:00.082Z, 1270
2023-10-28T06:36:00.232Z, 1150
2023-10-28T06:38:00.120Z, 1212
2023-10-28T06:40:00.117Z, 1562
2023-10-28T06:42:00.110Z, 1558
2023-10-28T06:44:00.430Z, 1105
2023-10-28T06:46:00.133Z, 1198
2023-10-28T06:48:00.137Z, 1404
2023-10-28T06:50:00.132Z, 1638
2023-10-28T06:52:00.082Z, 1329
2023-10-28T06:54:00.107Z, 1271
2023-10-28T06:56:00.138Z, 1505
2023-10-28T06:58:00.077Z, 1966
2023-10-28T07:00:00.190Z, 2000
2023-10-28T07:02:00.160Z, 1753
2023-10-28T07:04:00.153Z, 2031
2023-10-28T07:06:00.107Z, 2278
2023-10-28T07:08:00.169Z, 2088
2023-10-28T07:10:00.199Z, 2376
2023-10-28T07:12:00.108Z, 2101
2023-10-28T07:14:00.101Z, 2004
2023-10-28T07:16:00.089Z, 2044
2023-10-28T07:18:00.195Z, 2263
2023-10-28T07:20:00.180Z, 2135
2023-10-28T07:22:00.097Z, 2231
2023-10-28T07:24:00.104Z, 2623
2023-10-28T07:26:00.184Z, 4062
2023-10-28T07:28:00.090Z, 5082
2023-10-28T07:30:00.156Z, 5440
2023-10-28T07:32:00.150Z, 5040
2023-10-28T07:34:00.085Z, 4568
2023-10-28T07:36:00.111Z, 5108
2023-10-28T07:38:00.167Z, 7035
2023-10-28T07:40:00.097Z, 7275
2023-10-28T07:42:00.124Z, 6281
2023-10-28T07:44:00.124Z, 4663
2023-10-28T07:46:00.206Z, 3390
2023-10-28T07:48:00.217Z, 6538
2023-10-28T07:50:00.190Z, 8275
2023-10-28T07:52:00.082Z, 8049
2023-10-28T07:54:00.110Z, 6075
2023-10-28T07:56:00.139Z, 5030
2023-10-28T07:58:00.079Z, 3768
2023-10-28T08:00:00.129Z, 3521
2023-10-28T08:02:00.112Z, 4484
2023-10-28T08:04:00.102Z, 4444
2023-10-28T08:06:00.095Z, 4473
2023-10-28T08:08:00.095Z, 4673
2023-10-28T08:10:00.116Z, 4541
2023-10-28T08:12:00.124Z, 4465
2023-10-28T08:14:00.146Z, 3538
2023-10-28T08:16:00.079Z, 3595
2023-10-28T08:18:00.132Z, 3425
2023-10-28T08:20:00.129Z, 3442
2023-10-28T08:22:00.087Z, 4765
2023-10-28T08:24:00.111Z, 7170
2023-10-28T08:26:00.120Z, 8418
2023-10-28T08:28:00.101Z, 8476
2023-10-28T08:30:00.200Z, 8933
2023-10-28T08:32:00.101Z, 8340
2023-10-28T08:34:00.093Z, 9276
2023-10-28T08:36:00.118Z, 9223
2023-10-28T08:38:00.137Z, 8034
2023-10-28T08:40:00.127Z, 8160
2023-10-28T08:42:00.164Z, 7795
2023-10-28T08:44:00.119Z, 7169
2023-10-28T08:46:00.095Z, 6395
2023-10-28T08:48:00.217Z, 5594
2023-10-28T08:50:00.213Z, 5615
2023-10-28T08:52:00.075Z, 5524
2023-10-28T08:54:00.130Z, 5284
2023-10-28T08:56:00.129Z, 5059
2023-10-28T08:58:00.089Z, 5055
2023-10-28T09:00:00.132Z, 5122
2023-10-28T09:02:00.133Z, 5336
2023-10-28T09:04:00.228Z, 5828
2023-10-28T09:06:00.113Z, 6254
2023-10-28T09:08:00.130Z, 6643
2023-10-28T09:10:00.244Z, 6720
2023-10-28T09:12:00.124Z, 6360
2023-10-28T09:14:00.129Z, 6115
2023-10-28T09:16:00.162Z, 6540
2023-10-28T09:18:00.154Z, 6465
2023-10-28T09:20:00.111Z, 7248
2023-10-28T09:22:00.080Z, 7312
2023-10-28T09:24:00.106Z, 8207
2023-10-28T09:26:00.112Z, 7725
2023-10-28T09:28:00.081Z, 6767
2023-10-28T09:30:00.132Z, 6238
2023-10-28T09:32:00.120Z, 6736
2023-10-28T09:34:00.124Z, 9788
2023-10-28T09:36:00.122Z, 10290
2023-10-28T09:38:00.175Z, 10498
2023-10-28T09:40:00.144Z, 12487
2023-10-28T09:42:00.107Z, 13323
2023-10-28T09:44:00.096Z, 15210
2023-10-28T09:46:00.102Z, 15441
2023-10-28T09:48:00.172Z, 16015
2023-10-28T09:50:00.131Z, 14665
2023-10-28T09:52:00.078Z, 13325
2023-10-28T09:54:00.110Z, 11430
2023-10-28T09:56:00.108Z, 8152
2023-10-28T09:58:00.137Z, 8146
2023-10-28T10:00:00.157Z, 10496
2023-10-28T10:02:00.142Z, 12154
2023-10-28T10:04:00.172Z, 14880
2023-10-28T10:06:00.205Z, 10982
2023-10-28T10:08:00.121Z, 7419
2023-10-28T10:10:00.131Z, 7646
2023-10-28T10:12:00.116Z, 12303
2023-10-28T10:14:00.124Z, 16060
2023-10-28T10:16:00.104Z, 12755
2023-10-28T10:18:00.114Z, 8679
2023-10-28T10:20:00.162Z, 9080
2023-10-28T10:22:00.132Z, 7380
2023-10-28T10:24:00.120Z, 5827
2023-10-28T10:26:00.116Z, 4705
2023-10-28T10:28:00.080Z, 6677
2023-10-28T10:30:00.139Z, 8523
2023-10-28T10:32:00.145Z, 10925
2023-10-28T10:34:00.101Z, 9630
2023-10-28T10:36:00.101Z, 6984
2023-10-28T10:38:00.122Z, 4404
2023-10-28T10:40:00.126Z, 5822
2023-10-28T10:42:00.748Z, 8495
2023-10-28T10:44:00.116Z, 7471
2023-10-28T10:46:00.231Z, 8648
2023-10-28T10:48:00.181Z, 11851
2023-10-28T10:50:00.125Z, 15748
2023-10-28T10:52:00.139Z, 18296
2023-10-28T10:54:00.116Z, 14334
2023-10-28T10:56:00.146Z, 11144
2023-10-28T10:58:00.125Z, 8078
2023-10-28T11:00:00.180Z, 6685
2023-10-28T11:02:00.124Z, 6726
2023-10-28T11:04:00.081Z, 6646
2023-10-28T11:06:00.097Z, 5999
2023-10-28T11:08:00.150Z, 7585
2023-10-28T11:10:00.132Z, 9259
2023-10-28T11:12:00.102Z, 10030
2023-10-28T11:14:00.119Z, 12426
2023-10-28T11:16:00.106Z, 13830
2023-10-28T11:18:00.143Z, 14595
2023-10-28T11:20:00.171Z, 11786
2023-10-28T11:22:00.080Z, 11468
2023-10-28T11:24:00.118Z, 10209
2023-10-28T11:26:00.147Z, 9616
2023-10-28T11:28:00.082Z, 10531
2023-10-28T11:30:00.151Z, 9818
2023-10-28T11:32:00.108Z, 8202
2023-10-28T11:34:00.161Z, 7491
2023-10-28T11:36:00.094Z, 8506
2023-10-28T11:38:00.158Z, 8816
2023-10-28T11:40:00.118Z, 8640
2023-10-28T11:42:00.103Z, 7790
2023-10-28T11:44:00.149Z, 10110
2023-10-28T11:46:00.156Z, 11012
2023-10-28T11:48:00.178Z, 12294
2023-10-28T11:50:00.162Z, 12251
2023-10-28T11:52:00.082Z, 12056
2023-10-28T11:54:00.130Z, 12837
2023-10-28T11:56:00.085Z, 12545
2023-10-28T11:58:00.090Z, 10705
2023-10-28T12:00:00.135Z, 11365
2023-10-28T12:02:00.199Z, 12222
2023-10-28T12:04:00.087Z, 11715
2023-10-28T12:06:00.104Z, 9636
2023-10-28T12:08:00.083Z, 8398
2023-10-28T12:10:00.119Z, 6346
2023-10-28T12:12:00.110Z, 8345
2023-10-28T12:14:00.531Z, 9415
2023-10-28T12:16:00.096Z, 7705
2023-10-28T12:18:00.119Z, 8559
2023-10-28T12:20:00.160Z, 6881
2023-10-28T12:22:00.078Z, 4970
2023-10-28T12:24:00.107Z, 3384
2023-10-28T12:26:00.109Z, 3923
2023-10-28T12:28:00.085Z, 3011
2023-10-28T12:30:00.152Z, 2920
2023-10-28T12:32:00.210Z, 2820
2023-10-28T12:34:00.091Z, 2565
2023-10-28T12:36:00.104Z, 2338
2023-10-28T12:38:00.090Z, 2870
2023-10-28T12:40:00.179Z, 4634
2023-10-28T12:42:00.138Z, 5050
2023-10-28T12:44:00.150Z, 6095
2023-10-28T12:46:00.105Z, 8011
2023-10-28T12:48:00.152Z, 9148
2023-10-28T12:50:00.118Z, 11199
2023-10-28T12:52:00.093Z, 11875
2023-10-28T12:54:00.122Z, 9183
2023-10-28T12:56:00.091Z, 5909
2023-10-28T12:58:00.087Z, 6273
2023-10-28T13:00:00.166Z, 7675
2023-10-28T13:02:00.180Z, 6218
2023-10-28T13:04:00.204Z, 5672
2023-10-28T13:06:00.117Z, 5840
2023-10-28T13:08:00.097Z, 5227
2023-10-28T13:10:00.098Z, 5211
2023-10-28T13:12:00.224Z, 5871
2023-10-28T13:14:00.112Z, 4864
2023-10-28T13:16:00.139Z, 5715
2023-10-28T13:18:00.107Z, 6133
2023-10-28T13:20:00.150Z, 6170
2023-10-28T13:22:00.079Z, 5579
2023-10-28T13:24:00.190Z, 4497
2023-10-28T13:26:00.086Z, 4027
2023-10-28T13:28:00.084Z, 3747
2023-10-28T13:30:00.181Z, 3175
2023-10-28T13:32:00.201Z, 2925
2023-10-28T13:34:00.092Z, 2925
2023-10-28T13:36:00.112Z, 3685
2023-10-28T13:38:00.133Z, 4045
2023-10-28T13:40:00.128Z, 5011
2023-10-28T13:42:00.397Z, 4918
2023-10-28T13:44:00.135Z, 4386
2023-10-28T13:46:00.139Z, 4520
2023-10-28T13:48:00.184Z, 4907
2023-10-28T13:50:00.845Z, 3888
2023-10-28T13:52:00.076Z, 3765
2023-10-28T13:54:00.119Z, 4043
2023-10-28T13:56:00.126Z, 4735
2023-10-28T13:58:00.098Z, 4333
2023-10-28T14:00:00.125Z, 5403
2023-10-28T14:02:00.122Z, 6950
2023-10-28T14:04:00.224Z, 5607
2023-10-28T14:06:00.114Z, 4774
2023-10-28T14:08:00.099Z, 5284
2023-10-28T14:10:00.120Z, 7211
2023-10-28T14:12:00.106Z, 10273
2023-10-28T14:14:00.109Z, 11190
2023-10-28T14:16:00.162Z, 7089
2023-10-28T14:18:00.137Z, 5775
2023-10-28T14:20:00.200Z, 5542
2023-10-28T14:22:00.088Z, 4791
2023-10-28T14:24:00.145Z, 5074
2023-10-28T14:26:00.076Z, 5224
2023-10-28T14:28:00.087Z, 6720
2023-10-28T14:30:00.131Z, 8020
2023-10-28T14:32:00.102Z, 10995
2023-10-28T14:34:00.363Z, 10069
2023-10-28T14:36:00.116Z, 5960
2023-10-28T14:38:00.152Z, 5017
2023-10-28T14:40:00.122Z, 4556
2023-10-28T14:42:00.293Z, 4017
2023-10-28T14:44:00.125Z, 3851
2023-10-28T14:46:00.551Z, 3857
2023-10-28T14:48:00.678Z, 3150
2023-10-28T14:50:00.100Z, 3177
2023-10-28T14:52:00.579Z, 3820
2023-10-28T14:54:03.225Z, 3715
2023-10-28T14:56:00.514Z, 3450
2023-10-28T14:58:12.475Z, 3184
2023-10-28T15:00:00.790Z, 3285
2023-10-28T15:02:00.093Z, 3128
2023-10-28T15:04:00.243Z, 2363
2023-10-28T15:06:00.146Z, 1890
2023-10-28T15:08:00.104Z, 1775
2023-10-28T15:10:00.118Z, 1241
2023-10-28T15:12:00.123Z, 1062
2023-10-28T15:14:00.084Z, 960
2023-10-28T15:16:00.297Z, 970
2023-10-28T15:18:00.174Z, 980
2023-10-28T15:20:00.189Z, 996
2023-10-28T15:22:00.099Z, 889
2023-10-28T15:24:00.181Z, 875
2023-10-28T15:26:00.163Z, 805
2023-10-28T15:28:00.077Z, 774
2023-10-28T15:30:00.169Z, 655
2023-10-28T15:32:00.100Z, 641
2023-10-28T15:34:00.104Z, 726
2023-10-28T15:36:00.103Z, 673
2023-10-28T15:38:00.106Z, 719
2023-10-28T15:40:00.139Z, 594
2023-10-28T15:42:00.136Z, 421
2023-10-28T15:44:02.546Z, 440
2023-10-28T15:46:00.134Z, 435
2023-10-28T15:48:00.122Z, 453
2023-10-28T15:50:00.119Z, 395
2023-10-28T15:52:00.086Z, 335
2023-10-28T15:54:00.102Z, 270
2023-10-28T15:56:00.097Z, 261
2023-10-28T15:58:00.075Z, 266
2023-10-28T16:00:00.311Z, 266
2023-10-28T16:02:00.094Z, 219
2023-10-28T16:04:00.227Z, 202
2023-10-28T16:06:00.138Z, 151
2023-10-28T16:08:00.101Z, 107
2023-10-28T16:10:00.177Z, 83
2023-10-28T16:12:00.138Z, 82
2023-10-28T16:14:00.076Z, 78
2023-10-28T16:16:00.141Z, 65
2023-10-28T16:18:00.131Z, 55
2023-10-28T16:20:00.142Z, 38
2023-10-28T16:22:00.102Z, 25
2023-10-28T16:24:00.165Z, 14
2023-10-28T16:26:00.088Z, 9
2023-10-28T16:28:00.109Z, 6
2023-10-28T16:30:00.111Z, 5
2023-10-28T16:32:00.086Z, 3
2023-10-28T16:34:00.133Z, 1
2023-10-28T16:36:00.115Z, 0
2023-10-28T16:38:00.089Z, 0
2023-10-28T16:40:00.125Z, 0
2023-10-28T16:42:00.204Z, 0
2023-10-28T16:44:00.124Z, 0
2023-10-28T16:46:00.188Z, 0
2023-10-28T16:48:00.176Z, 0
2023-10-28T16:50:00.387Z, 0
2023-10-28T16:52:00.115Z, 0
2023-10-28T16:54:00.120Z, 0
2023-10-28T16:56:00.097Z, 0
2023-10-28T16:58:00.080Z, 0
2023-10-28T17:00:00.165Z, 0
2023-10-28T17:02:00.081Z, 0
2023-10-28T17:04:02.203Z, 0
2023-10-28T17:06:00.104Z, 0
2023-10-28T17:08:00.081Z, 0
2023-10-28T17:10:00.150Z, 0
2023-10-28T17:12:00.103Z, 0
2023-10-28T17:14:00.103Z, 0
2023-10-28T17:16:00.187Z, 0
2023-10-28T17:18:00.291Z, 0
2023-10-28T17:20:00.132Z, 0
2023-10-28T17:22:00.089Z, 0
2023-10-28T17:24:00.099Z, 0
2023-10-28T17:26:00.083Z, 0
2023-10-28T17:28:00.080Z, 0
2023-10-28T17:30:00.616Z, 0
2023-10-28T17:32:00.091Z, 0
2023-10-28T17:34:00.084Z, 0
2023-10-28T17:36:00.370Z, 0
2023-10-28T17:38:00.085Z, 0
2023-10-28T17:40:00.123Z, 0
2023-10-28T17:42:00.101Z, 0
2023-10-28T17:44:00.103Z, 0
2023-10-28T17:46:00.312Z, 0
2023-10-28T17:48:00.166Z, 0
2023-10-28T17:50:00.112Z, 0
2023-10-28T17:52:00.084Z, 0
2023-10-28T17:54:00.185Z, 0
2023-10-28T17:56:00.099Z, 0
2023-10-28T17:58:00.129Z, 0
2023-10-28T18:00:00.179Z, 0
2023-10-28T18:02:00.107Z, 0
2023-10-28T18:04:00.254Z, 0
2023-10-28T18:06:00.144Z, 0
2023-10-28T18:08:00.201Z, 0
2023-10-28T18:10:00.116Z, 0
2023-10-28T18:12:00.109Z, 0
2023-10-28T18:14:00.101Z, 0
2023-10-28T18:16:00.166Z, 0
2023-10-28T18:18:00.138Z, 0
2023-10-28T18:20:00.120Z, 0
2023-10-28T18:22:00.103Z, 0
2023-10-28T18:24:00.114Z, 0
2023-10-28T18:26:00.110Z, 0
2023-10-28T18:28:00.091Z, 0
2023-10-28T18:30:00.189Z, 0
2023-10-28T18:32:00.146Z, 0
2023-10-28T18:34:00.093Z, 0
2023-10-28T18:36:00.110Z, 0
2023-10-28T18:38:00.112Z, 0
2023-10-28T18:40:00.109Z, 0
2023-10-28T18:42:00.147Z, 0
2023-10-28T18:44:00.095Z, 0
2023-10-28T18:46:00.131Z, 0
2023-10-28T18:48:00.190Z, 0
2023-10-28T18:50:00.119Z, 0
2023-10-28T18:52:00.085Z, 0
2023-10-28T18:54:00.136Z, 0
2023-10-28T18:56:00.081Z, 0
2023-10-28T18:58:00.098Z, 0
2023-10-28T19:00:00.185Z, 0
2023-10-28T19:02:00.170Z, 0
2023-10-28T19:04:00.262Z, 0
2023-10-28T19:06:00.123Z, 0
2023-10-28T19:08:00.082Z, 0
2023-10-28T19:10:00.121Z, 0
2023-10-28T19:12:00.110Z, 0
2023-10-28T19:14:00.100Z, 0
2023-10-28T19:16:00.152Z, 0
2023-10-28T19:18:00.252Z, 0
2023-10-28T19:20:00.133Z, 0
2023-10-28T19:22:00.111Z, 0
2023-10-28T19:24:00.229Z, 0
2023-10-28T19:26:00.097Z, 0
2023-10-28T19:28:00.081Z, 0
2023-10-28T19:30:00.180Z, 0
2023-10-28T19:32:00.254Z, 0
2023-10-28T19:34:01.697Z, 0
2023-10-28T19:36:00.210Z, 0
2023-10-28T19:38:00.113Z, 0
2023-10-28T19:40:00.153Z, 0
2023-10-28T19:42:00.117Z, 0
2023-10-28T19:44:00.094Z, 0
2023-10-28T19:46:00.107Z, 0
2023-10-28T19:48:00.230Z, 0
2023-10-28T19:50:00.096Z, 0
2023-10-28T19:52:00.115Z, 0
2023-10-28T19:54:00.106Z, 0
2023-10-28T19:56:00.093Z, 0
2023-10-28T19:58:00.096Z, 0
2023-10-28T20:00:00.114Z, 0
2023-10-28T20:02:00.093Z, 0
2023-10-28T20:04:00.148Z, 0
2023-10-28T20:06:00.119Z, 0
2023-10-28T20:08:00.082Z, 0
2023-10-28T20:10:00.103Z, 0
2023-10-28T20:12:00.110Z, 0
2023-10-28T20:14:00.132Z, 0
2023-10-28T20:16:00.144Z, 0
2023-10-28T20:18:00.213Z, 0
2023-10-28T20:20:00.112Z, 0
2023-10-28T20:22:00.096Z, 0
2023-10-28T20:24:00.101Z, 0
2023-10-28T20:26:00.086Z, 0
2023-10-28T20:28:00.078Z, 0
2023-10-28T20:30:00.231Z, 0
2023-10-28T20:32:02.530Z, 0
2023-10-28T20:34:00.103Z, 0
2023-10-28T20:36:00.148Z, 0
2023-10-28T20:38:00.080Z, 0
2023-10-28T20:40:00.171Z, 0
2023-10-28T20:42:00.097Z, 0
2023-10-28T20:44:00.100Z, 0
2023-10-28T20:46:00.127Z, 0
2023-10-28T20:48:00.201Z, 0
2023-10-28T20:50:00.118Z, 0
2023-10-28T20:52:00.118Z, 0
2023-10-28T20:54:00.124Z, 0
2023-10-28T20:56:00.081Z, 0
2023-10-28T20:58:00.099Z, 0
2023-10-28T21:00:00.225Z, 0
2023-10-28T21:02:00.113Z, 0
2023-10-28T21:04:00.198Z, 0
2023-10-28T21:06:00.150Z, 0
2023-10-28T21:08:00.117Z, 0
2023-10-28T21:10:00.173Z, 0
2023-10-28T21:12:00.114Z, 0
2023-10-28T21:14:00.096Z, 0
2023-10-28T21:16:00.166Z, 0
2023-10-28T21:18:00.270Z, 0
2023-10-28T21:20:00.226Z, 0
2023-10-28T21:22:00.097Z, 0
2023-10-28T21:24:00.185Z, 0
2023-10-28T21:26:00.120Z, 0
2023-10-28T21:28:00.131Z, 0
2023-10-28T21:30:00.184Z, 0
2023-10-28T21:32:00.138Z, 0
2023-10-28T21:34:00.129Z, 0
2023-10-28T21:36:00.165Z, 0
2023-10-28T21:38:00.100Z, 0
2023-10-28T21:40:00.198Z, 0
2023-10-28T21:42:00.122Z, 0
2023-10-28T21:44:00.105Z, 0
2023-10-28T21:46:00.177Z, 0
2023-10-28T21:48:00.327Z, 0
2023-10-28T21:50:00.142Z, 0
2023-10-28T21:52:00.092Z, 0
2023-10-28T21:54:00.123Z, 0
2023-10-28T21:56:00.141Z, 0
2023-10-28T21:58:00.097Z, 0
2023-10-28T22:00:00.163Z, 0
2023-10-28T22:02:00.161Z, 0
2023-10-28T22:04:00.246Z, 0
2023-10-28T22:06:00.125Z, 0
2023-10-28T22:08:00.114Z, 0
2023-10-28T22:10:00.175Z, 0
2023-10-28T22:12:00.123Z, 0
2023-10-28T22:14:00.135Z, 0
2023-10-28T22:16:00.200Z, 0
2023-10-28T22:18:00.288Z, 0
2023-10-28T22:20:00.123Z, 0
2023-10-28T22:22:00.111Z, 0
2023-10-28T22:24:00.114Z, 0
2023-10-28T22:26:00.110Z, 0
2023-10-28T22:28:13.472Z, 0
2023-10-28T22:30:00.173Z, 0
2023-10-28T22:32:00.146Z, 0
2023-10-28T22:34:00.108Z, 0
2023-10-28T22:36:00.123Z, 0
2023-10-28T22:38:00.080Z, 0
2023-10-28T22:40:00.110Z, 0
2023-10-28T22:42:00.102Z, 0
2023-10-28T22:44:00.103Z, 0
2023-10-28T22:46:00.115Z, 0
2023-10-28T22:48:00.188Z, 0
2023-10-28T22:50:00.097Z, 0
2023-10-28T22:52:00.193Z, 0
2023-10-28T22:54:00.201Z, 0
2023-10-28T22:56:00.112Z, 0
2023-10-28T22:58:00.091Z, 0
2023-10-28T23:00:00.160Z, 0
2023-10-28T23:02:00.074Z, 0
2023-10-28T23:04:00.184Z, 0
2023-10-28T23:06:00.126Z, 0
2023-10-28T23:08:00.142Z, 0
2023-10-28T23:10:00.156Z, 0
2023-10-28T23:12:00.123Z, 0
2023-10-28T23:14:00.105Z, 0
2023-10-28T23:16:00.085Z, 0
2023-10-28T23:18:00.195Z, 0
2023-10-28T23:20:00.109Z, 0
2023-10-28T23:22:00.089Z, 0
2023-10-28T23:24:00.110Z, 0
2023-10-28T23:26:00.614Z, 0
2023-10-28T23:28:00.097Z, 0
2023-10-28T23:30:00.137Z, 0
2023-10-28T23:32:00.094Z, 0
2023-10-28T23:34:00.113Z, 0
2023-10-28T23:36:00.530Z, 0
2023-10-28T23:38:00.088Z, 0
2023-10-28T23:40:00.131Z, 0
2023-10-28T23:42:00.212Z, 0
2023-10-28T23:44:00.414Z, 0
2023-10-28T23:46:00.154Z, 0
2023-10-28T23:48:00.268Z, 0
2023-10-28T23:50:00.136Z, 0
2023-10-28T23:52:00.079Z, 0
2023-10-28T23:54:00.107Z, 0
2023-10-28T23:56:00.112Z, 0
2023-10-28T23:58:00.204Z, 0
